sensor_id;sensor_type;location;lat;lon;timestamp;pressure;altitude;pressure_sealevel;temperature;humidity
67738;BME280;54534;43.612;1.572;2023-02-02T00:01:28;100713.66;;;17.92;45.27
67738;BME280;54534;43.612;1.572;2023-02-02T00:03:54;100718.31;;;17.88;44.92
67738;BME280;54534;43.612;1.572;2023-02-02T00:06:23;100717.34;;;17.89;44.86
67738;BME280;54534;43.612;1.572;2023-02-02T00:08:49;100715.72;;;17.87;44.89
67738;BME280;54534;43.612;1.572;2023-02-02T00:11:16;100714.00;;;17.86;45.05
67738;BME280;54534;43.612;1.572;2023-02-02T00:13:42;100714.94;;;17.85;44.93
67738;BME280;54534;43.612;1.572;2023-02-02T00:16:38;100715.03;;;17.83;44.56
67738;BME280;54534;43.612;1.572;2023-02-02T00:19:07;100717.75;;;17.82;44.49
67738;BME280;54534;43.612;1.572;2023-02-02T00:21:32;100716.91;;;17.81;44.71
67738;BME280;54534;43.612;1.572;2023-02-02T00:23:58;100723.19;;;17.80;44.35
67738;BME280;54534;43.612;1.572;2023-02-02T00:26:24;100719.75;;;17.78;44.33
67738;BME280;54534;43.612;1.572;2023-02-02T00:28:50;100725.06;;;17.78;44.27
67738;BME280;54534;43.612;1.572;2023-02-02T00:31:16;100718.00;;;17.77;44.58
67738;BME280;54534;43.612;1.572;2023-02-02T00:33:46;100719.03;;;17.74;44.46
67738;BME280;54534;43.612;1.572;2023-02-02T00:36:12;100719.91;;;17.75;44.18
67738;BME280;54534;43.612;1.572;2023-02-02T00:38:38;100713.81;;;17.73;44.56
67738;BME280;54534;43.612;1.572;2023-02-02T00:41:04;100721.84;;;17.71;44.41
67738;BME280;54534;43.612;1.572;2023-02-02T00:43:29;100719.28;;;17.70;44.06
67738;BME280;54534;43.612;1.572;2023-02-02T00:45:55;100714.81;;;17.70;44.14
67738;BME280;54534;43.612;1.572;2023-02-02T00:48:20;100716.69;;;17.68;43.89
67738;BME280;54534;43.612;1.572;2023-02-02T00:50:46;100721.16;;;17.67;44.23
67738;BME280;54534;43.612;1.572;2023-02-02T00:53:12;100719.44;;;17.66;44.29
67738;BME280;54534;43.612;1.572;2023-02-02T00:55:37;100717.81;;;17.64;44.00
67738;BME280;54534;43.612;1.572;2023-02-02T00:58:02;100716.94;;;17.63;43.99
67738;BME280;54534;43.612;1.572;2023-02-02T01:00:28;100716.06;;;17.63;43.81
67738;BME280;54534;43.612;1.572;2023-02-02T01:02:54;100721.47;;;17.61;44.14
67738;BME280;54534;43.612;1.572;2023-02-02T01:05:20;100718.03;;;17.59;43.88
67738;BME280;54534;43.612;1.572;2023-02-02T01:07:46;100719.84;;;17.59;43.86
67738;BME280;54534;43.612;1.572;2023-02-02T01:10:14;100712.78;;;17.58;43.72
67738;BME280;54534;43.612;1.572;2023-02-02T01:12:41;100712.00;;;17.55;43.94
67738;BME280;54534;43.612;1.572;2023-02-02T01:15:07;100713.81;;;17.55;43.82
67738;BME280;54534;43.612;1.572;2023-02-02T01:17:33;100709.44;;;17.54;43.94
67738;BME280;54534;43.612;1.572;2023-02-02T01:19:58;100715.78;;;17.51;43.70
67738;BME280;54534;43.612;1.572;2023-02-02T01:22:24;100714.91;;;17.51;43.63
67738;BME280;54534;43.612;1.572;2023-02-02T01:24:50;100710.53;;;17.50;43.41
67738;BME280;54534;43.612;1.572;2023-02-02T01:27:15;100704.44;;;17.48;43.74
67738;BME280;54534;43.612;1.572;2023-02-02T01:29:40;100715.06;;;17.48;43.62
67738;BME280;54534;43.612;1.572;2023-02-02T01:32:06;100715.06;;;17.48;43.64
67738;BME280;54534;43.612;1.572;2023-02-02T01:34:32;100702.69;;;17.47;43.75
67738;BME280;54534;43.612;1.572;2023-02-02T01:36:57;100709.84;;;17.46;43.75
67738;BME280;54534;43.612;1.572;2023-02-02T01:39:23;100702.88;;;17.43;43.65
67738;BME280;54534;43.612;1.572;2023-02-02T01:41:48;100701.16;;;17.42;43.52
67738;BME280;54534;43.612;1.572;2023-02-02T01:47:18;100694.97;;;17.42;43.59
67738;BME280;54534;43.612;1.572;2023-02-02T01:49:45;100703.03;;;17.40;43.75
67738;BME280;54534;43.612;1.572;2023-02-02T01:52:12;100698.75;;;17.38;43.81
67738;BME280;54534;43.612;1.572;2023-02-02T01:54:41;100691.63;;;17.38;43.32
67738;BME280;54534;43.612;1.572;2023-02-02T01:57:12;100690.00;;;17.36;43.76
67738;BME280;54534;43.612;1.572;2023-02-02T01:59:40;100691.78;;;17.35;43.61
67738;BME280;54534;43.612;1.572;2023-02-02T02:02:06;100685.59;;;17.34;43.68
67738;BME280;54534;43.612;1.572;2023-02-02T02:04:33;100684.72;;;17.34;43.49
67738;BME280;54534;43.612;1.572;2023-02-02T02:07:00;100689.28;;;17.32;43.80
67738;BME280;54534;43.612;1.572;2023-02-02T02:09:26;100681.28;;;17.32;43.60
67738;BME280;54534;43.612;1.572;2023-02-02T02:11:53;100676.91;;;17.31;43.60
67738;BME280;54534;43.612;1.572;2023-02-02T02:14:19;100682.22;;;17.31;43.50
67738;BME280;54534;43.612;1.572;2023-02-02T02:17:18;100684.97;;;17.29;43.35
67738;BME280;54534;43.612;1.572;2023-02-02T02:37:08;100655.34;;;17.19;43.28
67738;BME280;54534;43.612;1.572;2023-02-02T02:39:43;100653.63;;;17.18;43.36
67738;BME280;54534;43.612;1.572;2023-02-02T02:42:16;100647.53;;;17.16;43.65
67738;BME280;54534;43.612;1.572;2023-02-02T02:44:43;100646.56;;;17.17;43.74
67738;BME280;54534;43.612;1.572;2023-02-02T02:47:10;100637.78;;;17.17;43.46
67738;BME280;54534;43.612;1.572;2023-02-02T02:49:46;100641.31;;;17.16;43.26
67738;BME280;54534;43.612;1.572;2023-02-02T02:52:12;100640.44;;;17.15;43.55
67738;BME280;54534;43.612;1.572;2023-02-02T02:54:50;100637.88;;;17.14;43.31
67738;BME280;54534;43.612;1.572;2023-02-02T02:57:31;100629.91;;;17.14;43.30
67738;BME280;54534;43.612;1.572;2023-02-02T03:08:36;100637.25;;;17.08;43.26
67738;BME280;54534;43.612;1.572;2023-02-02T03:11:06;100634.59;;;17.08;43.29
67738;BME280;54534;43.612;1.572;2023-02-02T03:13:32;100632.00;;;17.07;43.15
67738;BME280;54534;43.612;1.572;2023-02-02T03:15:58;100637.31;;;17.07;43.23
67738;BME280;54534;43.612;1.572;2023-02-02T03:18:27;100634.66;;;17.07;43.33
67738;BME280;54534;43.612;1.572;2023-02-02T03:20:53;100633.88;;;17.05;43.30
67738;BME280;54534;43.612;1.572;2023-02-02T03:23:19;100638.34;;;17.04;43.29
67738;BME280;54534;43.612;1.572;2023-02-02T03:25:44;100641.94;;;17.03;43.39
67738;BME280;54534;43.612;1.572;2023-02-02T03:28:10;100645.47;;;17.04;43.25
67738;BME280;54534;43.612;1.572;2023-02-02T03:30:37;100643.75;;;17.03;43.11
67738;BME280;54534;43.612;1.572;2023-02-02T03:33:04;100644.66;;;17.01;43.16
67738;BME280;54534;43.612;1.572;2023-02-02T03:35:30;100641.19;;;17.01;43.04
67738;BME280;54534;43.612;1.572;2023-02-02T03:37:56;100649.97;;;17.01;43.16
67738;BME280;54534;43.612;1.572;2023-02-02T03:40:21;100641.25;;;16.99;43.01
67738;BME280;54534;43.612;1.572;2023-02-02T03:42:47;100644.84;;;16.98;43.02
67738;BME280;54534;43.612;1.572;2023-02-02T03:45:12;100639.59;;;16.97;43.03
67738;BME280;54534;43.612;1.572;2023-02-02T03:47:37;100643.13;;;16.97;43.15
67738;BME280;54534;43.612;1.572;2023-02-02T03:50:04;100642.25;;;16.97;42.95
67738;BME280;54534;43.612;1.572;2023-02-02T03:52:30;100644.03;;;16.96;42.95
67738;BME280;54534;43.612;1.572;2023-02-02T03:54:55;100639.69;;;16.95;43.17
67738;BME280;54534;43.612;1.572;2023-02-02T03:57:21;100643.28;;;16.94;42.99
67738;BME280;54534;43.612;1.572;2023-02-02T03:59:46;100642.41;;;16.94;43.23
67738;BME280;54534;43.612;1.572;2023-02-02T04:02:11;100646.94;;;16.92;43.21
67738;BME280;54534;43.612;1.572;2023-02-02T04:04:37;100640.75;;;16.91;42.92
67738;BME280;54534;43.612;1.572;2023-02-02T04:07:02;100649.75;;;16.88;42.92
67738;BME280;54534;43.612;1.572;2023-02-02T04:09:28;100650.59;;;16.89;43.04
67738;BME280;54534;43.612;1.572;2023-02-02T04:11:53;100655.06;;;16.88;43.03
67738;BME280;54534;43.612;1.572;2023-02-02T04:14:19;100648.91;;;16.88;43.19
67738;BME280;54534;43.612;1.572;2023-02-02T04:16:44;100655.16;;;16.87;43.25
67738;BME280;54534;43.612;1.572;2023-02-02T04:19:10;100650.75;;;16.86;43.00
67738;BME280;54534;43.612;1.572;2023-02-02T04:21:37;100653.50;;;16.84;42.98
67738;BME280;54534;43.612;1.572;2023-02-02T04:24:04;100663.25;;;16.84;43.21
67738;BME280;54534;43.612;1.572;2023-02-02T04:26:30;100663.25;;;16.84;42.88
67738;BME280;54534;43.612;1.572;2023-02-02T04:28:55;100665.16;;;16.82;42.98
67738;BME280;54534;43.612;1.572;2023-02-02T04:31:21;100671.31;;;16.82;43.12
67738;BME280;54534;43.612;1.572;2023-02-02T04:33:46;100671.31;;;16.82;42.99
67738;BME280;54534;43.612;1.572;2023-02-02T04:36:11;100672.25;;;16.81;42.92
67738;BME280;54534;43.612;1.572;2023-02-02T04:38:37;100673.13;;;16.82;43.06
67738;BME280;54534;43.612;1.572;2023-02-02T04:41:07;100675.81;;;16.80;43.24
67738;BME280;54534;43.612;1.572;2023-02-02T04:43:34;100675.91;;;16.78;43.10
67738;BME280;54534;43.612;1.572;2023-02-02T04:46:00;100677.69;;;16.78;42.99
67738;BME280;54534;43.612;1.572;2023-02-02T04:48:26;100683.00;;;16.78;42.86
67738;BME280;54534;43.612;1.572;2023-02-02T04:51:00;100680.34;;;16.78;42.89
67738;BME280;54534;43.612;1.572;2023-02-02T04:53:26;100684.81;;;16.77;42.82
67738;BME280;54534;43.612;1.572;2023-02-02T04:55:52;100687.56;;;16.76;42.90
67738;BME280;54534;43.612;1.572;2023-02-02T04:58:17;100679.66;;;16.74;43.03
67738;BME280;54534;43.612;1.572;2023-02-02T05:00:43;100679.66;;;16.74;42.51
67738;BME280;54534;43.612;1.572;2023-02-02T05:03:09;100680.59;;;16.73;43.18
67738;BME280;54534;43.612;1.572;2023-02-02T05:05:34;100672.72;;;16.72;42.82
67738;BME280;54534;43.612;1.572;2023-02-02T05:07:59;100675.44;;;16.70;42.99
67738;BME280;54534;43.612;1.572;2023-02-02T05:10:25;100679.03;;;16.69;42.62
67738;BME280;54534;43.612;1.572;2023-02-02T05:12:54;100684.34;;;16.69;42.83
67738;BME280;54534;43.612;1.572;2023-02-02T05:15:20;100683.47;;;16.68;42.91
67738;BME280;54534;43.612;1.572;2023-02-02T05:17:49;100683.53;;;16.67;42.72
67738;BME280;54534;43.612;1.572;2023-02-02T05:20:15;100686.19;;;16.67;42.86
67738;BME280;54534;43.612;1.572;2023-02-02T05:22:41;100684.50;;;16.66;42.69
67738;BME280;54534;43.612;1.572;2023-02-02T05:25:07;100687.16;;;16.66;43.01
67738;BME280;54534;43.612;1.572;2023-02-02T05:27:34;100685.41;;;16.65;42.65
67738;BME280;54534;43.612;1.572;2023-02-02T05:29:59;100676.53;;;16.66;42.72
67738;BME280;54534;43.612;1.572;2023-02-02T05:32:25;100673.91;;;16.64;42.80
67738;BME280;54534;43.612;1.572;2023-02-02T05:34:52;100673.09;;;16.64;42.75
67738;BME280;54534;43.612;1.572;2023-02-02T05:37:17;100683.72;;;16.64;42.63
67738;BME280;54534;43.612;1.572;2023-02-02T05:39:42;100679.31;;;16.63;42.71
67738;BME280;54534;43.612;1.572;2023-02-02T05:42:08;100676.66;;;16.63;42.60
67738;BME280;54534;43.612;1.572;2023-02-02T05:44:33;100683.00;;;16.60;42.74
67738;BME280;54534;43.612;1.572;2023-02-02T05:46:59;100685.63;;;16.60;42.69
67738;BME280;54534;43.612;1.572;2023-02-02T05:49:24;100693.59;;;16.60;42.49
67738;BME280;54534;43.612;1.572;2023-02-02T05:51:52;100698.06;;;16.60;42.55
67738;BME280;54534;43.612;1.572;2023-02-02T05:54:19;100698.06;;;16.60;42.50
67738;BME280;54534;43.612;1.572;2023-02-02T05:56:46;100699.00;;;16.59;42.84
67738;BME280;54534;43.612;1.572;2023-02-02T05:59:11;100698.13;;;16.58;42.72
67738;BME280;54534;43.612;1.572;2023-02-02T06:01:37;100695.53;;;16.56;42.64
67738;BME280;54534;43.612;1.572;2023-02-02T06:04:02;100701.72;;;16.57;42.72
67738;BME280;54534;43.612;1.572;2023-02-02T06:06:28;100710.63;;;16.56;42.79
67738;BME280;54534;43.612;1.572;2023-02-02T06:08:53;100700.94;;;16.55;42.73
67738;BME280;54534;43.612;1.572;2023-02-02T06:11:19;100708.03;;;16.54;42.74
67738;BME280;54534;43.612;1.572;2023-02-02T06:13:44;100708.03;;;16.54;42.79
67738;BME280;54534;43.612;1.572;2023-02-02T06:16:09;100709.00;;;16.53;42.90
67738;BME280;54534;43.612;1.572;2023-02-02T06:18:35;100707.16;;;16.54;42.90
67738;BME280;54534;43.612;1.572;2023-02-02T06:21:02;100717.78;;;16.54;42.80
67738;BME280;54534;43.612;1.572;2023-02-02T06:23:29;100714.34;;;16.52;43.48
67738;BME280;54534;43.612;1.572;2023-02-02T06:25:54;100716.09;;;16.53;43.05
67738;BME280;54534;43.612;1.572;2023-02-02T06:28:19;100723.19;;;16.52;43.02
67738;BME280;54534;43.612;1.572;2023-02-02T06:30:45;100721.44;;;16.51;43.36
67738;BME280;54534;43.612;1.572;2023-02-02T06:33:11;100715.31;;;16.51;43.19
67738;BME280;54534;43.612;1.572;2023-02-02T06:35:36;100723.28;;;16.51;43.13
67738;BME280;54534;43.612;1.572;2023-02-02T06:38:02;100734.81;;;16.50;43.13
67738;BME280;54534;43.612;1.572;2023-02-02T06:40:28;100727.72;;;16.50;43.36
67738;BME280;54534;43.612;1.572;2023-02-02T06:42:57;100730.41;;;16.49;43.23
67738;BME280;54534;43.612;1.572;2023-02-02T06:45:24;100726.94;;;16.48;43.27
67738;BME280;54534;43.612;1.572;2023-02-02T06:47:49;100731.38;;;16.48;43.23
67738;BME280;54534;43.612;1.572;2023-02-02T06:50:15;100732.25;;;16.48;43.15
67738;BME280;54534;43.612;1.572;2023-02-02T06:52:47;100722.59;;;16.45;43.09
67738;BME280;54534;43.612;1.572;2023-02-02T06:55:13;100735.81;;;16.47;43.35
67738;BME280;54534;43.612;1.572;2023-02-02T06:57:38;100729.63;;;16.47;42.96
67738;BME280;54534;43.612;1.572;2023-02-02T07:00:04;100730.56;;;16.45;43.24
67738;BME280;54534;43.612;1.572;2023-02-02T07:02:29;100739.38;;;16.46;43.22
67738;BME280;54534;43.612;1.572;2023-02-02T07:04:54;100733.22;;;16.45;43.14
67738;BME280;54534;43.612;1.572;2023-02-02T07:07:20;100730.56;;;16.45;43.21
67738;BME280;54534;43.612;1.572;2023-02-02T07:09:45;100734.16;;;16.44;43.31
67738;BME280;54534;43.612;1.572;2023-02-02T07:12:11;100738.59;;;16.44;43.15
67738;BME280;54534;43.612;1.572;2023-02-02T07:14:36;100743.00;;;16.45;43.31
67738;BME280;54534;43.612;1.572;2023-02-02T07:17:02;100740.41;;;16.43;43.22
67738;BME280;54534;43.612;1.572;2023-02-02T07:19:27;100738.59;;;16.44;43.51
67738;BME280;54534;43.612;1.572;2023-02-02T07:21:52;100750.09;;;16.44;43.05
67738;BME280;54534;43.612;1.572;2023-02-02T07:24:18;100751.00;;;16.43;42.87
67738;BME280;54534;43.612;1.572;2023-02-02T07:26:43;100758.09;;;16.43;43.14
67738;BME280;54534;43.612;1.572;2023-02-02T07:29:12;100754.63;;;16.42;43.29
67738;BME280;54534;43.612;1.572;2023-02-02T07:31:40;100757.31;;;16.41;42.96
67738;BME280;54534;43.612;1.572;2023-02-02T07:34:06;100759.97;;;16.41;43.01
67738;BME280;54534;43.612;1.572;2023-02-02T07:36:31;100759.97;;;16.41;42.96
67738;BME280;54534;43.612;1.572;2023-02-02T07:38:57;100762.72;;;16.39;43.06
67738;BME280;54534;43.612;1.572;2023-02-02T07:41:23;100768.94;;;16.38;42.90
67738;BME280;54534;43.612;1.572;2023-02-02T07:43:49;100767.16;;;16.39;42.82
67738;BME280;54534;43.612;1.572;2023-02-02T07:46:16;100783.09;;;16.39;42.90
67738;BME280;54534;43.612;1.572;2023-02-02T07:48:41;100783.19;;;16.37;42.88
67738;BME280;54534;43.612;1.572;2023-02-02T07:51:10;100777.88;;;16.37;42.79
67738;BME280;54534;43.612;1.572;2023-02-02T07:53:36;100781.44;;;16.36;42.82
67738;BME280;54534;43.612;1.572;2023-02-02T07:56:10;100774.41;;;16.35;42.89
67738;BME280;54534;43.612;1.572;2023-02-02T07:58:35;100778.88;;;16.34;42.88
67738;BME280;54534;43.612;1.572;2023-02-02T08:01:02;100779.78;;;16.33;42.94
67738;BME280;54534;43.612;1.572;2023-02-02T08:03:28;100779.78;;;16.33;43.05
67738;BME280;54534;43.612;1.572;2023-02-02T08:05:54;100774.47;;;16.33;42.86
67738;BME280;54534;43.612;1.572;2023-02-02T08:08:20;100778.91;;;16.33;43.05
67738;BME280;54534;43.612;1.572;2023-02-02T08:10:50;100781.56;;;16.33;42.80
67738;BME280;54534;43.612;1.572;2023-02-02T08:13:16;100775.47;;;16.31;43.00
67738;BME280;54534;43.612;1.572;2023-02-02T08:15:42;100784.31;;;16.31;42.92
67738;BME280;54534;43.612;1.572;2023-02-02T08:18:07;100793.19;;;16.30;42.66
67738;BME280;54534;43.612;1.572;2023-02-02T08:20:33;100794.94;;;16.31;42.99
67738;BME280;54534;43.612;1.572;2023-02-02T08:22:58;100793.19;;;16.30;42.72
67738;BME280;54534;43.612;1.572;2023-02-02T08:25:24;100793.19;;;16.30;42.58
67738;BME280;54534;43.612;1.572;2023-02-02T08:27:56;100789.75;;;16.28;42.51
67738;BME280;54534;43.612;1.572;2023-02-02T08:30:25;100791.53;;;16.28;42.61
67738;BME280;54534;43.612;1.572;2023-02-02T08:32:51;100787.22;;;16.25;42.71
67738;BME280;54534;43.612;1.572;2023-02-02T08:35:16;100788.09;;;16.26;42.45
67738;BME280;54534;43.612;1.572;2023-02-02T08:37:46;100792.53;;;16.25;42.47
67738;BME280;54534;43.612;1.572;2023-02-02T08:40:12;100792.53;;;16.25;42.65
67738;BME280;54534;43.612;1.572;2023-02-02T08:42:37;100788.19;;;16.24;42.59
67738;BME280;54534;43.612;1.572;2023-02-02T08:45:03;100792.63;;;16.23;42.69
67738;BME280;54534;43.612;1.572;2023-02-02T08:47:29;100795.28;;;16.23;42.61
67738;BME280;54534;43.612;1.572;2023-02-02T08:49:54;100805.03;;;16.23;42.51
67738;BME280;54534;43.612;1.572;2023-02-02T08:52:20;100803.28;;;16.22;42.57
67738;BME280;54534;43.612;1.572;2023-02-02T08:54:45;100810.34;;;16.23;42.58
67738;BME280;54534;43.612;1.572;2023-02-02T08:57:10;100801.59;;;16.21;42.63
67738;BME280;54534;43.612;1.572;2023-02-02T08:59:36;100804.22;;;16.21;42.53
67738;BME280;54534;43.612;1.572;2023-02-02T09:02:01;100801.63;;;16.19;42.36
67738;BME280;54534;43.612;1.572;2023-02-02T09:04:27;100804.38;;;16.18;42.75
67738;BME280;54534;43.612;1.572;2023-02-02T09:06:52;100814.97;;;16.18;42.43
67738;BME280;54534;43.612;1.572;2023-02-02T09:09:18;100818.50;;;16.18;43.08
67738;BME280;54534;43.612;1.572;2023-02-02T09:11:44;100818.56;;;16.17;42.44
67738;BME280;54534;43.612;1.572;2023-02-02T09:14:11;100818.56;;;16.17;42.45
67738;BME280;54534;43.612;1.572;2023-02-02T09:16:37;100816.84;;;16.16;42.33
67738;BME280;54534;43.612;1.572;2023-02-02T09:19:03;100825.81;;;16.13;42.68
67738;BME280;54534;43.612;1.572;2023-02-02T09:21:29;100830.16;;;16.14;42.77
67738;BME280;54534;43.612;1.572;2023-02-02T09:23:54;100825.72;;;16.15;42.53
67738;BME280;54534;43.612;1.572;2023-02-02T09:26:26;100835.47;;;16.14;42.59
67738;BME280;54534;43.612;1.572;2023-02-02T09:28:56;100833.69;;;16.15;42.42
67738;BME280;54534;43.612;1.572;2023-02-02T09:31:23;100838.13;;;16.14;42.43
67738;BME280;54534;43.612;1.572;2023-02-02T09:33:50;100836.41;;;16.13;42.66
67738;BME280;54534;43.612;1.572;2023-02-02T09:36:18;100838.19;;;16.12;42.29
67738;BME280;54534;43.612;1.572;2023-02-02T09:38:48;100831.16;;;16.11;42.55
67738;BME280;54534;43.612;1.572;2023-02-02T09:46:31;100840.06;;;16.10;42.38
67738;BME280;54534;43.612;1.572;2023-02-02T09:49:13;100835.69;;;16.09;42.72
67738;BME280;54534;43.612;1.572;2023-02-02T09:51:45;100838.34;;;16.09;42.41
67738;BME280;54534;43.612;1.572;2023-02-02T09:54:23;100844.59;;;16.08;42.61
67738;BME280;54534;43.612;1.572;2023-02-02T09:56:52;100851.69;;;16.08;42.48
67738;BME280;54534;43.612;1.572;2023-02-02T09:59:34;100861.34;;;16.09;42.25
67738;BME280;54534;43.612;1.572;2023-02-02T10:02:20;100856.13;;;16.07;42.50
67738;BME280;54534;43.612;1.572;2023-02-02T10:04:50;100855.25;;;16.07;42.25
67738;BME280;54534;43.612;1.572;2023-02-02T10:07:26;100848.16;;;16.07;42.27
67738;BME280;54534;43.612;1.572;2023-02-02T10:10:15;100845.50;;;16.07;42.51
67738;BME280;54534;43.612;1.572;2023-02-02T10:15:18;100853.50;;;16.06;42.42
67738;BME280;54534;43.612;1.572;2023-02-02T10:17:58;100856.13;;;16.07;42.55
67738;BME280;54534;43.612;1.572;2023-02-02T10:20:47;100857.84;;;16.08;42.42
67738;BME280;54534;43.612;1.572;2023-02-02T10:23:34;100864.88;;;16.09;42.16
67738;BME280;54534;43.612;1.572;2023-02-02T10:31:14;100851.47;;;16.12;42.16
67738;BME280;54534;43.612;1.572;2023-02-02T10:33:43;100852.25;;;16.15;42.41
67738;BME280;54534;43.612;1.572;2023-02-02T10:36:23;100850.41;;;16.17;42.28
67738;BME280;54534;43.612;1.572;2023-02-02T10:39:30;100851.25;;;16.17;42.09
67738;BME280;54534;43.612;1.572;2023-02-02T10:44:48;100852.88;;;16.21;42.34
67738;BME280;54534;43.612;1.572;2023-02-02T10:47:24;100851.88;;;16.24;42.35
67738;BME280;54534;43.612;1.572;2023-02-02T10:49:59;100842.03;;;16.26;42.03
67738;BME280;54534;43.612;1.572;2023-02-02T10:52:31;100845.50;;;16.28;42.03
67738;BME280;54534;43.612;1.572;2023-02-02T11:03:13;100847.00;;;16.34;42.19
67738;BME280;54534;43.612;1.572;2023-02-02T11:05:39;100838.09;;;16.35;42.07
67738;BME280;54534;43.612;1.572;2023-02-02T11:08:31;100843.41;;;16.35;42.11
67738;BME280;54534;43.612;1.572;2023-02-02T11:13:50;100830.97;;;16.37;42.12
67738;BME280;54534;43.612;1.572;2023-02-02T11:16:19;100824.69;;;16.38;42.05
67738;BME280;54534;43.612;1.572;2023-02-02T11:18:45;100832.59;;;16.40;41.77
67738;BME280;54534;43.612;1.572;2023-02-02T11:21:32;100815.72;;;16.41;41.65
67738;BME280;54534;43.612;1.572;2023-02-02T11:26:40;100818.34;;;16.42;41.60
67738;BME280;54534;43.612;1.572;2023-02-02T11:29:16;100819.13;;;16.44;41.67
67738;BME280;54534;43.612;1.572;2023-02-02T11:31:43;100814.59;;;16.47;41.68
67738;BME280;54534;43.612;1.572;2023-02-02T11:34:18;100818.13;;;16.47;41.83
67738;BME280;54534;43.612;1.572;2023-02-02T11:39:32;100810.94;;;16.49;41.67
67738;BME280;54534;43.612;1.572;2023-02-02T11:42:03;100814.47;;;16.50;41.51
67738;BME280;54534;43.612;1.572;2023-02-02T11:44:31;100812.59;;;16.52;41.59
67738;BME280;54534;43.612;1.572;2023-02-02T11:46:59;100805.50;;;16.52;41.54
67738;BME280;54534;43.612;1.572;2023-02-02T11:49:26;100800.09;;;16.54;41.31
67738;BME280;54534;43.612;1.572;2023-02-02T11:54:26;100797.53;;;16.52;41.66
67738;BME280;54534;43.612;1.572;2023-02-02T11:57:00;100797.41;;;16.55;41.41
67738;BME280;54534;43.612;1.572;2023-02-02T12:02:27;100777.03;;;16.56;41.40
67738;BME280;54534;43.612;1.572;2023-02-02T12:05:39;100779.59;;;16.58;41.25
67738;BME280;54534;43.612;1.572;2023-02-02T12:07:41;100774.19;;;16.59;41.37
67738;BME280;54534;43.612;1.572;2023-02-02T12:10:18;100771.47;;;16.61;41.39
67738;BME280;54534;43.612;1.572;2023-02-02T12:24:36;100748.38;;;16.63;41.16
67738;BME280;54534;43.612;1.572;2023-02-02T12:26:38;100742.13;;;16.64;41.18
67738;BME280;54534;43.612;1.572;2023-02-02T12:37:43;100735.88;;;16.65;41.28
67738;BME280;54534;43.612;1.572;2023-02-02T12:40:22;100735.81;;;16.66;41.20
67738;BME280;54534;43.612;1.572;2023-02-02T13:00:18;100720.56;;;16.70;40.74
67738;BME280;54534;43.612;1.572;2023-02-02T13:05:57;100717.88;;;16.72;41.04
67738;BME280;54534;43.612;1.572;2023-02-02T13:11:01;100706.38;;;16.71;41.15
67738;BME280;54534;43.612;1.572;2023-02-02T13:13:35;100701.94;;;16.72;41.20
67738;BME280;54534;43.612;1.572;2023-02-02T13:16:06;100705.38;;;16.74;41.07
67738;BME280;54534;43.612;1.572;2023-02-02T13:19:01;100705.38;;;16.74;41.02
67738;BME280;54534;43.612;1.572;2023-02-02T13:21:29;100695.59;;;16.74;41.04
67738;BME280;54534;43.612;1.572;2023-02-02T13:23:57;100692.00;;;16.75;41.13
67738;BME280;54534;43.612;1.572;2023-02-02T13:26:27;100689.34;;;16.75;41.08
67738;BME280;54534;43.612;1.572;2023-02-02T13:32:12;100687.56;;;16.76;41.04
67738;BME280;54534;43.612;1.572;2023-02-02T13:34:47;100683.88;;;16.78;41.14
67738;BME280;54534;43.612;1.572;2023-02-02T13:53:36;100684.66;;;16.81;41.13
67738;BME280;54534;43.612;1.572;2023-02-02T13:58:56;100691.72;;;16.82;40.96
67738;BME280;54534;43.612;1.572;2023-02-02T14:01:26;100680.22;;;16.81;41.25
67738;BME280;54534;43.612;1.572;2023-02-02T14:03:56;100681.94;;;16.82;40.99
67738;BME280;54534;43.612;1.572;2023-02-02T14:06:24;100681.94;;;16.82;41.21
67738;BME280;54534;43.612;1.572;2023-02-02T14:08:53;100688.09;;;16.83;41.10
67738;BME280;54534;43.612;1.572;2023-02-02T14:11:31;100686.31;;;16.83;40.98
67738;BME280;54534;43.612;1.572;2023-02-02T14:14:18;100690.75;;;16.83;41.16
67738;BME280;54534;43.612;1.572;2023-02-02T14:34:43;100688.75;;;16.88;40.91
67738;BME280;54534;43.612;1.572;2023-02-02T14:58:39;100690.41;;;16.90;40.97
67738;BME280;54534;43.612;1.572;2023-02-02T15:06:35;100699.16;;;16.93;40.84
67738;BME280;54534;43.612;1.572;2023-02-02T15:14:55;100701.72;;;16.94;41.12
67738;BME280;54534;43.612;1.572;2023-02-02T15:19:57;100701.72;;;16.94;41.12
67738;BME280;54534;43.612;1.572;2023-02-02T15:22:34;100704.31;;;16.96;41.40
67738;BME280;54534;43.612;1.572;2023-02-02T15:25:12;100705.16;;;16.96;41.03
67738;BME280;54534;43.612;1.572;2023-02-02T15:27:45;100706.88;;;16.97;41.31
67738;BME280;54534;43.612;1.572;2023-02-02T15:30:16;100700.72;;;16.97;41.27
67738;BME280;54534;43.612;1.572;2023-02-02T15:32:42;100701.56;;;16.97;41.07
67738;BME280;54534;43.612;1.572;2023-02-02T15:35:20;100707.66;;;16.99;41.40
67738;BME280;54534;43.612;1.572;2023-02-02T15:37:53;100705.88;;;17.00;41.15
67738;BME280;54534;43.612;1.572;2023-02-02T15:40:23;100708.63;;;16.98;41.30
67738;BME280;54534;43.612;1.572;2023-02-02T15:43:04;100700.56;;;17.00;41.10
67738;BME280;54534;43.612;1.572;2023-02-02T15:45:48;100702.34;;;16.99;40.84
67738;BME280;54534;43.612;1.572;2023-02-02T15:48:25;100706.75;;;17.00;41.32
67738;BME280;54534;43.612;1.572;2023-02-02T15:50:55;100696.16;;;16.99;41.18
67738;BME280;54534;43.612;1.572;2023-02-02T15:55:48;100705.00;;;16.99;41.09
67738;BME280;54534;43.612;1.572;2023-02-02T15:58:28;100701.34;;;17.02;41.27
67738;BME280;54534;43.612;1.572;2023-02-02T16:03:37;100701.44;;;17.00;41.17
67738;BME280;54534;43.612;1.572;2023-02-02T16:06:06;100707.59;;;17.01;40.83
67738;BME280;54534;43.612;1.572;2023-02-02T16:08:32;100713.75;;;17.01;41.02